Thursday, April 26, 2018, 5:05 PM EDT
Back to Local

KDMH, Baltimore Downtown

Location: Baltimore, MD, United States Lat: 39.283
Local Time: 5:05 PM EDT (21:05 GMT) Lon: -76.617
Time Zone: US/Eastern Elev: 19 ft

Show me the last for .
Show Coded

Time T Td Feel RH Dir Speed Gust Alt SLP Vis Weather Sky Remarks
2018-04-26 15:54 70 39 - 32 - - - 29.83 29.83 0 None
2018-04-26 14:54 67 39 - 35 - - - 29.84 29.84 0 None
2018-04-26 13:54 65 39 - 38 - - - 29.85 29.85 0 6-hr Min Temp (2pm): 54.0°F
6-hr Max Temp (2pm): 66.0°F
2018-04-26 12:54 63 39 - 41 - - - 29.86 29.85 0 None
2018-04-26 11:54 62 39 - 42 - - - 29.87 29.86 0 None
2018-04-26 10:54 61 40 - 45 - - - 29.86 29.86 0 None
2018-04-26 09:54 58 38 - 47 - - - 29.85 29.85 0 None
2018-04-26 08:54 55 37 - 50 - - - 29.86 29.86 0 None
2018-04-26 07:54 54 38 - 54 - - - 29.84 29.83 0 6-hr Min Temp (8am): 50.0°F
6-hr Max Temp (8am): 60.1°F
2018-04-26 06:54 51 38 - 60 - - - 29.81 29.81 0 None
2018-04-26 05:54 51 38 - 60 - - - 29.80 29.80 0 None
2018-04-26 04:54 52 38 - 58 - - - 29.79 29.79 0 None
2018-04-26 03:54 54 40 - 58 - - - 29.76 29.75 0 None
2018-04-26 02:54 58 42 - 55 - - - 29.72 29.72 0 None
2018-04-26 01:54 60 49 - 66 - - - 29.72 29.71 0 6-hr Min Temp (2am): 60.1°F
6-hr Max Temp (2am): 64.9°F
2018-04-26 00:54 61 52 - 72 - - - 29.71 29.71 0 24-hr Min Temp (1am): 55.9°F
24-hr Max Temp (1am): 68.0°F
2018-04-25 23:54 60 57 - 89 - - - 29.71 29.71 0 None
2018-04-25 22:54 62 58 - 86 - - - 29.72 29.72 0 None
2018-04-25 21:54 63 58 - 83 - - - 29.73 29.72 0 None
2018-04-25 20:54 63 58 - 83 - - - 29.70 29.70 0 None
2018-04-25 19:54 65 56 - 72 - - - 29.69 29.68 0 6-hr Min Temp (8pm): 64.0°F
6-hr Max Temp (8pm): 68.0°F
2018-04-25 18:54 67 57 - 70 - - - 29.67 29.66 0 None
2018-04-25 17:54 67 59 - 75 - - - 29.67 29.67 0 None

Support USWX by starting your Amazon purchase here.